Flugplatz Hamburg

Bericht für EDDH

vom 22.03. um 21:50 UTC

Wind 8 kt aus 150°

Sichtweite 4800 m

feuchter Dunst

keine Wolken

Temperatur 11.0°C

Taupunkt 9.0°C

Luftfeuchtigkeit 87%

Luftdruck 1026 hPa

EDDH 222150Z 15008KT 130V190 4800 BR NSC 11/09 Q1026 TEMPO 5000

Prognose für EDDH

vom 22.03. um 17:00 UTC

Zwischen 18:00 UTC und 02:00 UTC

Wind 7 kt aus 160°

Sichtweite 9000 m

keine Wolken


Am 23.03. zwischen 02:00 und 05:00 UTC übergehend zu

Wind 7 kt aus 250°

Sichtweite 3500 m

feuchter Dunst

aufgebrochene Bewölkung in 400 ft


Am 23.03. zwischen 05:00 UTC und 08:00 UTC zeitweise

Sichtweite 700 m

Nebel

aufgebrochene Bewölkung in 100 ft


Am 23.03. zwischen 08:00 und 11:00 UTC übergehend zu

Wind 12 kt aus 300°

Sichtweite 10 km oder mehr

feuchter Dunst

aufgebrochene Bewölkung in 1200 ft


Am 23.03. zwischen 11:00 und 13:00 UTC übergehend zu

Wind 12 kt aus 300°

Sichtweite 10 km oder mehr

feuchter Dunst

aufgelockert bewölkt in 3000 ft

TAF EDDH 221700Z 2218/2324 16007KT 9000 NSC BECMG 2302/2305 25007KT 3500 BR BKN004 TEMPO 2305/2308 0700 FG BKN001 BECMG 2308/2311 30012KT 9999 BKN012 BECMG 2311/2313 SCT030
Impressum